Delta Billie — WDE8059 — position and weather

sailwx.info

Track history (hours):
 
Tides and Currents Weather Stations Pressure Air Temp Water Temp Dewpoint Dewpoint Depression Visibility Wind Speed Wind Dir Waves Ship Positions

Delta Billie

Owner: Baydelta Maritime, San Francicso, CA. More information available from US FCC via Universal Licensing System and Coast Guard Vessel Documentation Center.

Last reported at 2018-May-25 02:44 UTC. Time now 2018-May-25 03:28 UTC.
Position N 38°03' W 122°11'.

Length 30 m; draft 5.5 m.

Type: Towing. MMSI: 367401030.

Date/timePositionNaut miles runAvg speedWind from/ knotsBaromVisibWave heightAir tempDewpointWater temp
2018-May-25 02:44N 38°03' W 122°11'210.3
2018-May-25 02:30N 38°04' W 122°14'910.0
2018-May-25 01:38N 38°00' W 122°24'211.0
2018-May-25 01:29N 37°59' W 122°25'4 6.5
2018-May-25 00:57N 37°56' W 122°25'0 0.0
2018-May-25 00:27N 37°56' W 122°25'0 0.3
2018-May-25 00:00N 37°56' W 122°25'0 0.0
2018-May-24 23:25N 37°56' W 122°25'0 0.0
2018-May-24 22:52N 37°56' W 122°25'2 5.3
2018-May-24 22:29N 37°54' W 122°23'1 1.9
2018-May-24 22:00N 37°55' W 122°22'1 1.1
2018-May-24 21:30N 37°54' W 122°22'3 5.2
2018-May-24 21:00N 37°55' W 122°25'5 8.1
2018-May-24 20:23N 38°00' W 122°25'410.5
2018-May-24 19:57N 38°03' W 122°20'10 2.0
2018-May-24 15:14N 38°02' W 122°08'2 0.2
2018-May-24 04:12N 38°03' W 122°11'211.0
2018-May-24 04:00N 38°04' W 122°14'6 9.8
2018-May-24 03:24N 38°03' W 122°21'610.3
2018-May-24 02:49N 37°58' W 122°26'311.0
2018-May-24 02:30N 37°55' W 122°27'4 8.9
2018-May-24 02:00N 37°51' W 122°24'5 9.3
2018-May-24 01:30N 37°49' W 122°30'1 2.5
2018-May-24 01:00N 37°49' W 122°31'2 4.5
2018-May-24 00:30N 37°49' W 122°28'4 7.1
2018-May-24 00:00N 37°48' W 122°24'3 5.4
2018-May-23 23:30N 37°51' W 122°24'611.6
2018-May-23 22:59N 37°57' W 122°26'611.6
2018-May-23 22:30N 38°02' W 122°22'7 1.6
2018-May-23 18:27N 38°05' W 122°15'5 0.9
2018-May-23 12:38N 38°02' W 122°09'2 0.6
2018-May-23 09:25N 38°03' W 122°11'5 8.3
2018-May-23 08:52N 38°03' W 122°17'4 8.8
2018-May-23 08:22N 38°02' W 122°22'3 8.8
2018-May-23 07:59N 37°59' W 122°25'4 8.7
2018-May-23 07:30N 37°55' W 122°25'5 9.8
2018-May-23 07:00N 37°50' W 122°24'2 4.3
2018-May-23 06:30N 37°48' W 122°24'0 0.0
2018-May-23 06:00N 37°48' W 122°24'0 0.0
2018-May-23 05:30N 37°48' W 122°24'0 0.0
2018-May-23 05:00N 37°48' W 122°24'2 5.0
2018-May-23 04:30N 37°47' W 122°21'0 0.5
2018-May-23 04:00N 37°47' W 122°22'4 7.6
2018-May-23 03:30N 37°49' W 122°26'4 9.0
2018-May-23 03:00N 37°48' W 122°31'6 9.4
2018-May-23 02:22N 37°46' W 122°38'411.4
2018-May-23 02:00N 37°47' W 122°33'3 6.8
2018-May-23 01:30N 37°48' W 122°29'1 1.4
2018-May-23 01:00N 37°48' W 122°30'1 1.8
2018-May-23 00:30N 37°49' W 122°29'2 4.8
2018-May-23 00:00N 37°49' W 122°26'2 3.8
2018-May-22 23:30N 37°48' W 122°24'0 0.0
2018-May-22 23:00N 37°48' W 122°24'0 0.0
2018-May-22 22:30N 37°48' W 122°24'0 0.0
2018-May-22 22:00N 37°48' W 122°24'0 0.0
2018-May-22 21:30N 37°48' W 122°24'0 0.0
2018-May-22 21:00N 37°48' W 122°24'0 0.0
2018-May-22 20:30N 37°48' W 122°24'0 0.0
2018-May-22 20:00N 37°48' W 122°24'0 0.0
2018-May-22 19:30N 37°48' W 122°24'0 0.0
2018-May-22 18:59N 37°48' W 122°24'0 0.0
2018-May-22 18:30N 37°48' W 122°24'0 0.0
2018-May-22 18:00N 37°48' W 122°24'0 0.0
2018-May-22 17:30N 37°48' W 122°24'0 0.0
2018-May-22 17:00N 37°48' W 122°24'0 0.0
2018-May-22 16:30N 37°48' W 122°24'0 0.0
2018-May-22 16:00N 37°48' W 122°24'0 0.0
2018-May-22 15:30N 37°48' W 122°24'0 0.0
2018-May-22 15:00N 37°48' W 122°24'0 0.0
2018-May-22 14:30N 37°48' W 122°24'0 0.0
2018-May-22 14:00N 37°48' W 122°24'0 0.0
2018-May-22 13:30N 37°48' W 122°24'0 0.0
2018-May-22 13:00N 37°48' W 122°24'0 0.0
2018-May-22 12:30N 37°48' W 122°24'0 0.0
2018-May-22 12:00N 37°48' W 122°24'0 0.0
2018-May-22 11:30N 37°48' W 122°24'2 3.2
2018-May-22 11:00N 37°48' W 122°22'1 2.7
2018-May-22 10:30N 37°49' W 122°20'1 2.1
2018-May-22 10:00N 37°48' W 122°22'2 3.6
2018-May-22 09:29N 37°48' W 122°24'0 0.0
2018-May-22 09:00N 37°48' W 122°24'0 0.0
2018-May-22 08:30N 37°48' W 122°24'0 0.0
2018-May-22 08:00N 37°48' W 122°24'0 0.0
2018-May-22 07:30N 37°48' W 122°24'0 0.0
2018-May-22 07:00N 37°48' W 122°24'0 0.0
2018-May-22 06:30N 37°48' W 122°24'0 0.0
2018-May-22 06:00N 37°48' W 122°24'0 0.0
2018-May-22 05:28N 37°48' W 122°24'0 0.0
2018-May-22 05:00N 37°48' W 122°24'0 0.0
2018-May-22 04:30N 37°48' W 122°24'1 2.9
2018-May-22 04:00N 37°50' W 122°24'510.0
2018-May-22 03:30N 37°55' W 122°25'6 9.2
2018-May-22 02:54N 37°60' W 122°25'4 8.8
2018-May-22 02:30N 38°02' W 122°21'4 2.1
2018-May-22 00:30N 38°03' W 122°16'1 1.7
2018-May-22 00:00N 38°04' W 122°17'7 8.6
2018-May-21 23:14N 38°00' W 122°24'310.5
2018-May-21 22:59N 37°58' W 122°26'510.4
2018-May-21 22:29N 37°53' W 122°26'4 7.9
2018-May-21 22:00N 37°50' W 122°28'612.8
2018-May-21 21:30N 37°47' W 122°35'15 8.2
2018-May-21 19:40N 37°35' W 122°47'210.8
2018-May-21 19:27N 37°33' W 122°48'510.8
2018-May-21 18:58N 37°28' W 122°51'18 1.2
2018-May-21 04:16N 37°44' W 122°40'3 7.6
2018-May-21 03:51N 37°46' W 122°37'3 8.1
2018-May-21 03:30N 37°47' W 122°34'3 5.9
2018-May-21 03:01N 37°48' W 122°31'4 8.1
2018-May-21 02:30N 37°51' W 122°27'611.1
2018-May-21 02:01N 37°57' W 122°26'611.0
2018-May-21 01:30N 38°01' W 122°22'511.0
2018-May-21 01:01N 38°03' W 122°16'3 0.1
2018-May-20 00:08N 38°04' W 122°13'412.4
2018-May-19 23:48N 38°03' W 122°18'610.7
2018-May-19 23:12N 38°00' W 122°25'312.3
2018-May-19 22:59N 37°58' W 122°27'511.1
2018-May-19 22:30N 37°53' W 122°25'4 7.1
2018-May-19 22:00N 37°50' W 122°28'2 4.0
2018-May-19 21:31N 37°48' W 122°30'0 0.3
2018-May-19 21:01N 37°48' W 122°30'2 4.2
2018-May-19 20:31N 37°49' W 122°27'3 5.2
2018-May-19 20:01N 37°48' W 122°24'0 0.1
2018-May-19 19:30N 37°48' W 122°24'0 0.0
2018-May-19 19:00N 37°48' W 122°24'0 0.0
2018-May-19 18:30N 37°48' W 122°24'0 0.0
2018-May-19 18:00N 37°48' W 122°24'0 0.0
2018-May-19 17:30N 37°48' W 122°24'0 0.0
2018-May-19 17:01N 37°48' W 122°24'0 0.0
2018-May-19 16:29N 37°48' W 122°24'0 0.0
2018-May-19 16:00N 37°48' W 122°24'0 0.0
2018-May-19 15:31N 37°48' W 122°24'0 0.0
2018-May-19 15:00N 37°48' W 122°24'0 0.0
2018-May-19 14:31N 37°48' W 122°24'0 0.0
2018-May-19 14:01N 37°48' W 122°24'0 0.0
2018-May-19 13:30N 37°48' W 122°24'0 0.0
2018-May-19 13:00N 37°48' W 122°24'0 0.0
2018-May-19 12:30N 37°48' W 122°24'0 0.0
2018-May-19 12:00N 37°48' W 122°24'0 0.0
2018-May-19 11:30N 37°48' W 122°24'0 0.0
2018-May-19 11:00N 37°48' W 122°24'0 0.0
2018-May-19 10:31N 37°48' W 122°24'0 0.0
2018-May-19 10:00N 37°48' W 122°24'0 0.0
2018-May-19 09:30N 37°48' W 122°24'0 0.0
2018-May-19 09:01N 37°48' W 122°24'0 0.0
2018-May-19 08:29N 37°48' W 122°24'0 0.0
2018-May-19 07:58N 37°48' W 122°24'0 0.0
2018-May-19 07:30N 37°48' W 122°24'1 2.7
2018-May-19 07:01N 37°47' W 122°23'2 3.8
2018-May-19 06:30N 37°46' W 122°21'1 2.7
2018-May-19 06:01N 37°47' W 122°22'5 9.7
2018-May-19 05:31N 37°51' W 122°25'5 9.5
2018-May-19 05:00N 37°56' W 122°27'5 9.9
2018-May-19 04:29N 38°01' W 122°24'4 9.3
2018-May-19 04:00N 38°03' W 122°20'1 1.1
2018-May-19 02:44N 38°03' W 122°18'5 9.7
2018-May-19 02:11N 38°00' W 122°24'2 9.7
2018-May-19 01:56N 37°59' W 122°26'4 8.9
2018-May-19 01:30N 37°55' W 122°25'5 9.5
2018-May-19 01:00N 37°51' W 122°23'5 9.2
2018-May-19 00:31N 37°48' W 122°18'1 1.0
2018-May-19 00:00N 37°48' W 122°18'2 3.4
2018-May-18 23:30N 37°48' W 122°20'2 4.8
2018-May-18 23:00N 37°49' W 122°23'2 3.6
2018-May-18 22:30N 37°50' W 122°24'4 7.9
2018-May-18 22:01N 37°54' W 122°25'4 7.5
2018-May-18 21:30N 37°58' W 122°26'4 7.7
2018-May-18 20:59N 38°01' W 122°23'4 8.3
2018-May-18 20:30N 38°03' W 122°19'5 9.0
2018-May-18 20:00N 38°04' W 122°13'5 0.2
2018-May-17 23:06N 38°02' W 122°08'1 0.0
2018-May-17 06:41N 38°02' W 122°08'2 5.4
2018-May-17 06:15N 38°03' W 122°11'210.0
2018-May-17 06:00N 38°04' W 122°14'710.4
2018-May-17 05:20N 38°02' W 122°23'411.7
2018-May-17 04:57N 37°58' W 122°26'510.6
2018-May-17 04:30N 37°54' W 122°26'3 6.8
2018-May-17 04:01N 37°50' W 122°27'3 6.8
2018-May-17 03:31N 37°48' W 122°30'0 0.3
2018-May-17 03:01N 37°48' W 122°30'3 5.2
2018-May-17 02:31N 37°49' W 122°27'3 5.7
2018-May-17 02:00N 37°48' W 122°24'0 0.0
2018-May-17 01:30N 37°48' W 122°24'0 0.0
2018-May-17 01:00N 37°48' W 122°24'0 0.0
2018-May-17 00:31N 37°48' W 122°24'0 0.0
2018-May-17 00:00N 37°48' W 122°24'1 1.2
2018-May-16 23:31N 37°49' W 122°24'4 8.1
2018-May-16 23:00N 37°49' W 122°29'2 3.7
2018-May-16 22:30N 37°49' W 122°31'5 9.2
2018-May-16 22:00N 37°50' W 122°26'5 9.7
2018-May-16 21:28N 37°55' W 122°27'5 9.6
2018-May-16 20:54N 38°01' W 122°24'4 9.6
2018-May-16 20:27N 38°03' W 122°20'8 2.3
2018-May-16 17:05N 38°02' W 122°10'1 8.9
2018-May-16 16:56N 38°03' W 122°12'4 8.5
2018-May-16 16:30N 38°04' W 122°16'7 7.4
2018-May-16 15:36N 38°01' W 122°24'2 7.9
2018-May-16 15:24N 37°59' W 122°25'3 7.8
2018-May-16 15:00N 37°56' W 122°26'4 7.9
2018-May-16 14:31N 37°53' W 122°26'4 7.8
2018-May-16 14:00N 37°49' W 122°29'0 0.6
2018-May-16 13:31N 37°49' W 122°29'4 8.4
2018-May-16 13:00N 37°53' W 122°26'612.2
2018-May-16 12:30N 37°59' W 122°26'612.0
2018-May-16 12:00N 38°03' W 122°20'5 8.3
2018-May-16 11:27N 38°04' W 122°15'0 0.1
2018-May-16 10:39N 38°04' W 122°15'1 7.0
2018-May-16 10:30N 38°04' W 122°13'5 1.9
2018-May-16 08:03N 38°02' W 122°08'0 1.1
2018-May-16 08:00N 38°02' W 122°08'2 3.9
2018-May-16 07:24N 38°03' W 122°11'6 9.3
2018-May-16 06:48N 38°03' W 122°18'0 0.4
2018-May-16 06:28N 38°03' W 122°18'2 4.7
2018-May-16 05:59N 38°04' W 122°15'3 0.2
2018-May-15 11:20N 38°03' W 122°11'4 2.4
2018-May-15 09:40N 38°04' W 122°16'1 4.9
2018-May-15 09:25N 38°03' W 122°17'  
Track history (hours):
 
Tides and Currents Weather Stations Pressure Air Temp Water Temp Dewpoint Dewpoint Depression Visibility Wind Speed Wind Dir Waves Ship Positions

Delta Billie

Owner: Baydelta Maritime, San Francicso, CA. More information available from US FCC via Universal Licensing System and Coast Guard Vessel Documentation Center.

Last reported at 2018-May-25 02:44 UTC. Time now 2018-May-25 03:28 UTC.
Position N 38°03' W 122°11'.

Length 30 m; draft 5.5 m.

Type: Towing. MMSI: 367401030.

Date/timePositionNaut miles runAvg speedWind from/ knotsBaromVisibWave heightAir tempDewpointWater temp
2018-May-25 02:44N 38°03' W 122°11'210.3
2018-May-25 02:30N 38°04' W 122°14'910.0
2018-May-25 01:38N 38°00' W 122°24'211.0
2018-May-25 01:29N 37°59' W 122°25'4 6.5
2018-May-25 00:57N 37°56' W 122°25'0 0.0
2018-May-25 00:27N 37°56' W 122°25'0 0.3
2018-May-25 00:00N 37°56' W 122°25'0 0.0
2018-May-24 23:25N 37°56' W 122°25'0 0.0
2018-May-24 22:52N 37°56' W 122°25'2 5.3
2018-May-24 22:29N 37°54' W 122°23'1 1.9
2018-May-24 22:00N 37°55' W 122°22'1 1.1
2018-May-24 21:30N 37°54' W 122°22'3 5.2
2018-May-24 21:00N 37°55' W 122°25'5 8.1
2018-May-24 20:23N 38°00' W 122°25'410.5
2018-May-24 19:57N 38°03' W 122°20'10 2.0
2018-May-24 15:14N 38°02' W 122°08'2 0.2
2018-May-24 04:12N 38°03' W 122°11'211.0
2018-May-24 04:00N 38°04' W 122°14'6 9.8
2018-May-24 03:24N 38°03' W 122°21'610.3
2018-May-24 02:49N 37°58' W 122°26'311.0
2018-May-24 02:30N 37°55' W 122°27'4 8.9
2018-May-24 02:00N 37°51' W 122°24'5 9.3
2018-May-24 01:30N 37°49' W 122°30'1 2.5
2018-May-24 01:00N 37°49' W 122°31'2 4.5
2018-May-24 00:30N 37°49' W 122°28'4 7.1
2018-May-24 00:00N 37°48' W 122°24'3 5.4
2018-May-23 23:30N 37°51' W 122°24'611.6
2018-May-23 22:59N 37°57' W 122°26'611.6
2018-May-23 22:30N 38°02' W 122°22'7 1.6
2018-May-23 18:27N 38°05' W 122°15'5 0.9
2018-May-23 12:38N 38°02' W 122°09'2 0.6
2018-May-23 09:25N 38°03' W 122°11'5 8.3
2018-May-23 08:52N 38°03' W 122°17'4 8.8
2018-May-23 08:22N 38°02' W 122°22'3 8.8
2018-May-23 07:59N 37°59' W 122°25'4 8.7
2018-May-23 07:30N 37°55' W 122°25'5 9.8
2018-May-23 07:00N 37°50' W 122°24'2 4.3
2018-May-23 06:30N 37°48' W 122°24'0 0.0
2018-May-23 06:00N 37°48' W 122°24'0 0.0
2018-May-23 05:30N 37°48' W 122°24'0 0.0
2018-May-23 05:00N 37°48' W 122°24'2 5.0
2018-May-23 04:30N 37°47' W 122°21'0 0.5
2018-May-23 04:00N 37°47' W 122°22'4 7.6
2018-May-23 03:30N 37°49' W 122°26'4 9.0
2018-May-23 03:00N 37°48' W 122°31'6 9.4
2018-May-23 02:22N 37°46' W 122°38'411.4
2018-May-23 02:00N 37°47' W 122°33'3 6.8
2018-May-23 01:30N 37°48' W 122°29'1 1.4
2018-May-23 01:00N 37°48' W 122°30'1 1.8
2018-May-23 00:30N 37°49' W 122°29'2 4.8
2018-May-23 00:00N 37°49' W 122°26'2 3.8
2018-May-22 23:30N 37°48' W 122°24'0 0.0
2018-May-22 23:00N 37°48' W 122°24'0 0.0
2018-May-22 22:30N 37°48' W 122°24'0 0.0
2018-May-22 22:00N 37°48' W 122°24'0 0.0
2018-May-22 21:30N 37°48' W 122°24'0 0.0
2018-May-22 21:00N 37°48' W 122°24'0 0.0
2018-May-22 20:30N 37°48' W 122°24'0 0.0
2018-May-22 20:00N 37°48' W 122°24'0 0.0
2018-May-22 19:30N 37°48' W 122°24'0 0.0
2018-May-22 18:59N 37°48' W 122°24'0 0.0
2018-May-22 18:30N 37°48' W 122°24'0 0.0
2018-May-22 18:00N 37°48' W 122°24'0 0.0
2018-May-22 17:30N 37°48' W 122°24'0 0.0
2018-May-22 17:00N 37°48' W 122°24'0 0.0
2018-May-22 16:30N 37°48' W 122°24'0 0.0
2018-May-22 16:00N 37°48' W 122°24'0 0.0
2018-May-22 15:30N 37°48' W 122°24'0 0.0
2018-May-22 15:00N 37°48' W 122°24'0 0.0
2018-May-22 14:30N 37°48' W 122°24'0 0.0
2018-May-22 14:00N 37°48' W 122°24'0 0.0
2018-May-22 13:30N 37°48' W 122°24'0 0.0
2018-May-22 13:00N 37°48' W 122°24'0 0.0
2018-May-22 12:30N 37°48' W 122°24'0 0.0
2018-May-22 12:00N 37°48' W 122°24'0 0.0
2018-May-22 11:30N 37°48' W 122°24'2 3.2
2018-May-22 11:00N 37°48' W 122°22'1 2.7
2018-May-22 10:30N 37°49' W 122°20'1 2.1
2018-May-22 10:00N 37°48' W 122°22'2 3.6
2018-May-22 09:29N 37°48' W 122°24'0 0.0
2018-May-22 09:00N 37°48' W 122°24'0 0.0
2018-May-22 08:30N 37°48' W 122°24'0 0.0
2018-May-22 08:00N 37°48' W 122°24'0 0.0
2018-May-22 07:30N 37°48' W 122°24'0 0.0
2018-May-22 07:00N 37°48' W 122°24'0 0.0
2018-May-22 06:30N 37°48' W 122°24'0 0.0
2018-May-22 06:00N 37°48' W 122°24'0 0.0
2018-May-22 05:28N 37°48' W 122°24'0 0.0
2018-May-22 05:00N 37°48' W 122°24'0 0.0
2018-May-22 04:30N 37°48' W 122°24'1 2.9
2018-May-22 04:00N 37°50' W 122°24'510.0
2018-May-22 03:30N 37°55' W 122°25'6 9.2
2018-May-22 02:54N 37°60' W 122°25'4 8.8
2018-May-22 02:30N 38°02' W 122°21'4 2.1
2018-May-22 00:30N 38°03' W 122°16'1 1.7
2018-May-22 00:00N 38°04' W 122°17'7 8.6
2018-May-21 23:14N 38°00' W 122°24'310.5
2018-May-21 22:59N 37°58' W 122°26'510.4
2018-May-21 22:29N 37°53' W 122°26'4 7.9
2018-May-21 22:00N 37°50' W 122°28'612.8
2018-May-21 21:30N 37°47' W 122°35'15 8.2
2018-May-21 19:40N 37°35' W 122°47'210.8
2018-May-21 19:27N 37°33' W 122°48'510.8
2018-May-21 18:58N 37°28' W 122°51'18 1.2
2018-May-21 04:16N 37°44' W 122°40'3 7.6
2018-May-21 03:51N 37°46' W 122°37'3 8.1
2018-May-21 03:30N 37°47' W 122°34'3 5.9
2018-May-21 03:01N 37°48' W 122°31'4 8.1
2018-May-21 02:30N 37°51' W 122°27'611.1
2018-May-21 02:01N 37°57' W 122°26'611.0
2018-May-21 01:30N 38°01' W 122°22'511.0
2018-May-21 01:01N 38°03' W 122°16'3 0.1
2018-May-20 00:08N 38°04' W 122°13'412.4
2018-May-19 23:48N 38°03' W 122°18'610.7
2018-May-19 23:12N 38°00' W 122°25'312.3
2018-May-19 22:59N 37°58' W 122°27'511.1
2018-May-19 22:30N 37°53' W 122°25'4 7.1
2018-May-19 22:00N 37°50' W 122°28'2 4.0
2018-May-19 21:31N 37°48' W 122°30'0 0.3
2018-May-19 21:01N 37°48' W 122°30'2 4.2
2018-May-19 20:31N 37°49' W 122°27'3 5.2
2018-May-19 20:01N 37°48' W 122°24'0 0.1
2018-May-19 19:30N 37°48' W 122°24'0 0.0
2018-May-19 19:00N 37°48' W 122°24'0 0.0
2018-May-19 18:30N 37°48' W 122°24'0 0.0
2018-May-19 18:00N 37°48' W 122°24'0 0.0
2018-May-19 17:30N 37°48' W 122°24'0 0.0
2018-May-19 17:01N 37°48' W 122°24'0 0.0
2018-May-19 16:29N 37°48' W 122°24'0 0.0
2018-May-19 16:00N 37°48' W 122°24'0 0.0
2018-May-19 15:31N 37°48' W 122°24'0 0.0
2018-May-19 15:00N 37°48' W 122°24'0 0.0
2018-May-19 14:31N 37°48' W 122°24'0 0.0
2018-May-19 14:01N 37°48' W 122°24'0 0.0
2018-May-19 13:30N 37°48' W 122°24'0 0.0
2018-May-19 13:00N 37°48' W 122°24'0 0.0
2018-May-19 12:30N 37°48' W 122°24'0 0.0
2018-May-19 12:00N 37°48' W 122°24'0 0.0
2018-May-19 11:30N 37°48' W 122°24'0 0.0
2018-May-19 11:00N 37°48' W 122°24'0 0.0
2018-May-19 10:31N 37°48' W 122°24'0 0.0
2018-May-19 10:00N 37°48' W 122°24'0 0.0
2018-May-19 09:30N 37°48' W 122°24'0 0.0
2018-May-19 09:01N 37°48' W 122°24'0 0.0
2018-May-19 08:29N 37°48' W 122°24'0 0.0
2018-May-19 07:58N 37°48' W 122°24'0 0.0
2018-May-19 07:30N 37°48' W 122°24'1 2.7
2018-May-19 07:01N 37°47' W 122°23'2 3.8
2018-May-19 06:30N 37°46' W 122°21'1 2.7
2018-May-19 06:01N 37°47' W 122°22'5 9.7
2018-May-19 05:31N 37°51' W 122°25'5 9.5
2018-May-19 05:00N 37°56' W 122°27'5 9.9
2018-May-19 04:29N 38°01' W 122°24'4 9.3
2018-May-19 04:00N 38°03' W 122°20'1 1.1
2018-May-19 02:44N 38°03' W 122°18'5 9.7
2018-May-19 02:11N 38°00' W 122°24'2 9.7
2018-May-19 01:56N 37°59' W 122°26'4 8.9
2018-May-19 01:30N 37°55' W 122°25'5 9.5
2018-May-19 01:00N 37°51' W 122°23'5 9.2
2018-May-19 00:31N 37°48' W 122°18'1 1.0
2018-May-19 00:00N 37°48' W 122°18'2 3.4
2018-May-18 23:30N 37°48' W 122°20'2 4.8
2018-May-18 23:00N 37°49' W 122°23'2 3.6
2018-May-18 22:30N 37°50' W 122°24'4 7.9
2018-May-18 22:01N 37°54' W 122°25'4 7.5
2018-May-18 21:30N 37°58' W 122°26'4 7.7
2018-May-18 20:59N 38°01' W 122°23'4 8.3
2018-May-18 20:30N 38°03' W 122°19'5 9.0
2018-May-18 20:00N 38°04' W 122°13'5 0.2
2018-May-17 23:06N 38°02' W 122°08'1 0.0
2018-May-17 06:41N 38°02' W 122°08'2 5.4
2018-May-17 06:15N 38°03' W 122°11'210.0
2018-May-17 06:00N 38°04' W 122°14'710.4
2018-May-17 05:20N 38°02' W 122°23'411.7
2018-May-17 04:57N 37°58' W 122°26'510.6
2018-May-17 04:30N 37°54' W 122°26'3 6.8
2018-May-17 04:01N 37°50' W 122°27'3 6.8
2018-May-17 03:31N 37°48' W 122°30'0 0.3
2018-May-17 03:01N 37°48' W 122°30'3 5.2
2018-May-17 02:31N 37°49' W 122°27'3 5.7
2018-May-17 02:00N 37°48' W 122°24'0 0.0
2018-May-17 01:30N 37°48' W 122°24'0 0.0
2018-May-17 01:00N 37°48' W 122°24'0 0.0
2018-May-17 00:31N 37°48' W 122°24'0 0.0
2018-May-17 00:00N 37°48' W 122°24'1 1.2
2018-May-16 23:31N 37°49' W 122°24'4 8.1
2018-May-16 23:00N 37°49' W 122°29'2 3.7
2018-May-16 22:30N 37°49' W 122°31'5 9.2
2018-May-16 22:00N 37°50' W 122°26'5 9.7
2018-May-16 21:28N 37°55' W 122°27'5 9.6
2018-May-16 20:54N 38°01' W 122°24'4 9.6
2018-May-16 20:27N 38°03' W 122°20'8 2.3
2018-May-16 17:05N 38°02' W 122°10'1 8.9
2018-May-16 16:56N 38°03' W 122°12'4 8.5
2018-May-16 16:30N 38°04' W 122°16'7 7.4
2018-May-16 15:36N 38°01' W 122°24'2 7.9
2018-May-16 15:24N 37°59' W 122°25'3 7.8
2018-May-16 15:00N 37°56' W 122°26'4 7.9
2018-May-16 14:31N 37°53' W 122°26'4 7.8
2018-May-16 14:00N 37°49' W 122°29'0 0.6
2018-May-16 13:31N 37°49' W 122°29'4 8.4
2018-May-16 13:00N 37°53' W 122°26'612.2
2018-May-16 12:30N 37°59' W 122°26'612.0
2018-May-16 12:00N 38°03' W 122°20'5 8.3
2018-May-16 11:27N 38°04' W 122°15'0 0.1
2018-May-16 10:39N 38°04' W 122°15'1 7.0
2018-May-16 10:30N 38°04' W 122°13'5 1.9
2018-May-16 08:03N 38°02' W 122°08'0 1.1
2018-May-16 08:00N 38°02' W 122°08'2 3.9
2018-May-16 07:24N 38°03' W 122°11'6 9.3
2018-May-16 06:48N 38°03' W 122°18'0 0.4
2018-May-16 06:28N 38°03' W 122°18'2 4.7
2018-May-16 05:59N 38°04' W 122°15'3 0.2
2018-May-15 11:20N 38°03' W 122°11'4 2.4
2018-May-15 09:40N 38°04' W 122°16'1 4.9
2018-May-15 09:25N 38°03' W 122°17'  

Dump ship's entire track history